createdAt,value
2019-02-26T00:00:36.745Z,99.90
2019-02-26T00:03:19.892Z,99.90
2019-02-26T00:06:02.067Z,99.90
2019-02-26T00:08:42.898Z,99.90
2019-02-26T00:11:26.376Z,99.90
2019-02-26T00:16:51.027Z,99.90
2019-02-26T00:19:31.953Z,99.90
2019-02-26T00:22:13.873Z,99.90
2019-02-26T00:24:55.985Z,99.90
2019-02-26T00:27:36.768Z,99.90
2019-02-26T00:30:18.615Z,99.90
2019-02-26T00:33:02.521Z,99.90
2019-02-26T00:35:43.933Z,99.90
2019-02-26T00:38:24.982Z,99.90
2019-02-26T00:41:06.148Z,99.90
2019-02-26T00:43:51.195Z,99.90
2019-02-26T00:49:14.292Z,99.90
2019-02-26T00:51:55.006Z,99.90
2019-02-26T00:54:38.758Z,99.90
2019-02-26T00:57:20.940Z,99.90
2019-02-26T01:00:03.416Z,99.90
2019-02-26T01:02:44.382Z,99.90
2019-02-26T01:05:25.176Z,99.90
2019-02-26T01:08:09.965Z,99.90
2019-02-26T01:10:52.125Z,99.90
2019-02-26T01:13:33.447Z,99.90
2019-02-26T01:16:15.032Z,99.90
2019-02-26T01:21:43.045Z,99.90
2019-02-26T01:24:25.873Z,99.90
2019-02-26T01:27:06.610Z,99.90
2019-02-26T01:32:31.782Z,99.90
2019-02-26T01:35:13.049Z,99.90
2019-02-26T01:37:55.692Z,99.90
2019-02-26T01:40:39.378Z,99.90
2019-02-26T01:43:18.722Z,99.90
2019-02-26T01:45:59.663Z,99.90
2019-02-26T01:48:41.272Z,99.90
2019-02-26T01:51:23.928Z,99.90
2019-02-26T01:54:05.354Z,99.90
2019-02-26T02:04:59.768Z,99.90
2019-02-26T02:07:44.296Z,99.90
2019-02-26T02:13:38.070Z,99.90
2019-02-26T02:16:18.393Z,99.90
2019-02-26T02:18:59.985Z,99.90
2019-02-26T02:21:42.783Z,99.90
2019-02-26T02:24:24.575Z,99.90
2019-02-26T02:27:05.881Z,99.90
2019-02-26T02:29:48.818Z,99.90
2019-02-26T02:32:31.718Z,99.90
2019-02-26T02:35:13.404Z,99.90
2019-02-26T02:37:56.284Z,99.90
2019-02-26T02:40:39.863Z,99.90
2019-02-26T02:43:21.381Z,99.90
2019-02-26T02:46:02.011Z,99.90
2019-02-26T02:48:43.112Z,99.90
2019-02-26T02:51:25.550Z,99.90
2019-02-26T02:54:06.695Z,99.90
2019-02-26T02:56:47.767Z,99.90
2019-02-26T03:05:00.845Z,99.90
2019-02-26T03:10:31.136Z,99.90
2019-02-26T03:13:11.918Z,99.90
2019-02-26T03:15:53.542Z,99.90
2019-02-26T03:18:38.970Z,99.90
2019-02-26T03:21:21.973Z,99.90
2019-02-26T03:24:03.354Z,99.90
2019-02-26T03:26:45.318Z,99.90
2019-02-26T03:29:26.121Z,99.90
2019-02-26T03:32:06.775Z,99.90
2019-02-26T03:34:47.628Z,99.90
2019-02-26T03:37:28.807Z,99.90
2019-02-26T03:40:11.093Z,99.90
2019-02-26T03:42:52.211Z,99.90
2019-02-26T03:45:32.848Z,99.90
2019-02-26T03:48:13.624Z,99.90
2019-02-26T03:50:54.276Z,99.90
2019-02-26T03:53:36.312Z,99.90
2019-02-26T03:56:20.414Z,99.90
2019-02-26T03:59:03.406Z,99.90
2019-02-26T04:01:43.685Z,99.90
2019-02-26T04:04:26.151Z,99.90
2019-02-26T04:07:10.252Z,99.90
2019-02-26T04:09:52.495Z,99.90
2019-02-26T04:12:36.016Z,99.90
2019-02-26T04:15:15.106Z,99.90
2019-02-26T04:17:56.251Z,99.90
2019-02-26T04:20:43.571Z,99.90
2019-02-26T04:23:22.098Z,99.90
2019-02-26T04:26:03.084Z,99.90
2019-02-26T04:28:44.970Z,99.90
2019-02-26T04:31:26.216Z,99.90
2019-02-26T04:34:08.544Z,99.90
2019-02-26T04:36:49.703Z,99.90
2019-02-26T04:42:17.543Z,99.90
2019-02-26T04:44:58.879Z,99.90
2019-02-26T04:47:40.896Z,99.90
2019-02-26T04:50:26.134Z,99.90
2019-02-26T04:53:06.153Z,99.90
2019-02-26T04:55:47.450Z,99.90
2019-02-26T04:58:28.365Z,99.90
2019-02-26T05:01:10.128Z,99.90
2019-02-26T05:03:51.877Z,99.90
2019-02-26T05:06:32.371Z,99.90
2019-02-26T05:09:13.507Z,99.90
2019-02-26T05:11:54.445Z,99.90
2019-02-26T05:14:34.911Z,99.90
2019-02-26T05:17:19.082Z,99.90
2019-02-26T05:20:03.495Z,99.90
2019-02-26T05:22:43.570Z,99.90
2019-02-26T05:25:24.655Z,99.90
2019-02-26T05:30:52.313Z,99.90
2019-02-26T05:33:33.806Z,99.90
2019-02-26T05:36:18.583Z,99.90
2019-02-26T05:39:00.358Z,99.90
2019-02-26T05:41:41.874Z,99.90
2019-02-26T05:47:07.412Z,99.90
2019-02-26T05:52:37.743Z,99.90
2019-02-26T05:55:20.720Z,99.90
2019-02-26T05:58:07.419Z,99.90
2019-02-26T06:00:48.891Z,99.90
2019-02-26T06:03:29.908Z,99.90
2019-02-26T06:06:10.550Z,99.90
2019-02-26T06:08:51.927Z,99.90
2019-02-26T06:11:36.333Z,99.90
2019-02-26T06:14:16.630Z,99.90
2019-02-26T06:16:58.079Z,99.90
2019-02-26T06:22:35.474Z,99.90
2019-02-26T06:25:20.668Z,99.90
2019-02-26T06:28:02.284Z,99.90
2019-02-26T06:30:42.711Z,99.90
2019-02-26T06:33:23.782Z,99.90
2019-02-26T06:36:07.970Z,99.90
2019-02-26T06:41:33.156Z,99.90
2019-02-26T06:44:13.691Z,99.90
2019-02-26T06:46:54.408Z,99.90
2019-02-26T06:49:35.696Z,99.90
2019-02-26T06:52:18.029Z,99.90
2019-02-26T06:57:47.117Z,99.90
2019-02-26T07:03:12.144Z,99.90
2019-02-26T07:08:37.249Z,99.90
2019-02-26T07:11:18.638Z,99.90
2019-02-26T07:14:01.310Z,99.90
2019-02-26T07:16:42.894Z,99.90
2019-02-26T07:19:29.011Z,99.90
2019-02-26T07:22:11.593Z,99.90
2019-02-26T07:24:53.974Z,99.90
2019-02-26T07:27:35.990Z,99.90
2019-02-26T07:30:17.465Z,99.90
2019-02-26T07:35:43.384Z,99.90
2019-02-26T07:38:25.180Z,99.90
2019-02-26T07:41:08.991Z,99.90
2019-02-26T07:43:51.744Z,99.90
2019-02-26T07:46:33.704Z,99.90
2019-02-26T07:49:14.851Z,99.90
2019-02-26T07:51:57.768Z,99.90
2019-02-26T07:54:39.697Z,99.90
2019-02-26T07:57:21.076Z,99.90
2019-02-26T08:00:03.041Z,99.90
2019-02-26T08:02:44.231Z,99.90
2019-02-26T08:05:26.804Z,99.90
2019-02-26T08:08:10.302Z,99.90
2019-02-26T08:13:36.596Z,99.90
2019-02-26T08:16:20.231Z,99.90
2019-02-26T08:19:04.471Z,99.90
2019-02-26T08:24:29.887Z,99.90
2019-02-26T08:27:11.630Z,99.90
2019-02-26T08:29:57.013Z,99.90
2019-02-26T08:32:39.239Z,99.90
2019-02-26T08:35:20.287Z,99.90
2019-02-26T08:38:05.605Z,99.90
2019-02-26T08:40:43.921Z,99.90
2019-02-26T08:43:25.681Z,99.90
2019-02-26T08:46:09.106Z,99.90
2019-02-26T08:48:50.850Z,99.90
2019-02-26T08:51:32.103Z,99.90
2019-02-26T08:54:20.574Z,99.90
2019-02-26T08:56:56.669Z,99.90
2019-02-26T08:59:42.291Z,99.90
2019-02-26T09:02:25.890Z,99.90
2019-02-26T09:05:09.325Z,99.90
2019-02-26T09:07:50.490Z,99.90
2019-02-26T09:10:32.889Z,99.90
2019-02-26T09:13:16.309Z,99.90
2019-02-26T09:16:00.075Z,99.90
2019-02-26T09:18:43.296Z,99.90
2019-02-26T09:21:24.258Z,99.90
2019-02-26T09:24:07.634Z,99.90
2019-02-26T09:26:54.692Z,99.90
2019-02-26T09:29:36.652Z,99.90
2019-02-26T09:32:18.265Z,99.90
2019-02-26T09:35:02.299Z,99.90
2019-02-26T09:37:42.822Z,99.90
2019-02-26T09:40:26.584Z,99.90
2019-02-26T09:43:09.234Z,99.80
2019-02-26T09:45:52.794Z,98.30
2019-02-26T09:51:19.079Z,90.80
2019-02-26T09:53:59.136Z,88.70
2019-02-26T09:56:39.636Z,84.90
2019-02-26T09:59:20.127Z,84.70
2019-02-26T10:04:47.809Z,83.80
2019-02-26T10:07:31.236Z,80.50
2019-02-26T10:10:14.060Z,80.30
2019-02-26T10:12:57.381Z,79.90
2019-02-26T10:15:39.950Z,79.40
2019-02-26T10:18:21.495Z,77.20
2019-02-26T10:21:03.593Z,74.60
2019-02-26T10:23:51.470Z,74.10
2019-02-26T10:26:30.785Z,73.00
2019-02-26T10:29:13.288Z,71.00
2019-02-26T10:31:56.694Z,69.80
2019-02-26T10:34:38.055Z,68.70
2019-02-26T10:37:19.204Z,68.50
2019-02-26T10:40:00.173Z,69.10
2019-02-26T10:42:40.731Z,68.60
2019-02-26T10:45:24.855Z,67.50
2019-02-26T10:48:05.209Z,67.40
2019-02-26T10:50:51.598Z,67.80
2019-02-26T10:53:31.263Z,67.60
2019-02-26T10:56:12.168Z,68.10
2019-02-26T10:58:57.319Z,68.50
2019-02-26T11:01:36.099Z,67.00
2019-02-26T11:04:17.565Z,66.70
2019-02-26T11:06:59.407Z,65.80
2019-02-26T11:12:31.604Z,62.20
2019-02-26T11:15:12.530Z,62.40
2019-02-26T11:17:55.913Z,62.20
2019-02-26T11:20:35.954Z,61.30
2019-02-26T11:23:16.985Z,60.20
2019-02-26T11:25:57.988Z,60.60
2019-02-26T11:28:47.765Z,59.90
2019-02-26T11:31:36.548Z,59.40
2019-02-26T11:34:18.881Z,59.00
2019-02-26T11:37:02.786Z,58.60
2019-02-26T11:39:43.330Z,58.80
2019-02-26T11:42:26.088Z,58.20
2019-02-26T11:45:11.780Z,55.70
2019-02-26T11:47:51.032Z,54.90
2019-02-26T11:50:32.237Z,53.80
2019-02-26T11:53:13.402Z,53.00
2019-02-26T11:55:56.791Z,52.90
2019-02-26T11:58:37.373Z,52.90
2019-02-26T12:01:17.970Z,53.20
2019-02-26T12:04:03.521Z,53.40
2019-02-26T12:06:42.229Z,52.90
2019-02-26T12:09:23.541Z,51.50
2019-02-26T12:12:06.114Z,51.20
2019-02-26T12:14:48.477Z,51.30
2019-02-26T12:17:29.850Z,51.10
2019-02-26T12:23:00.756Z,51.30
2019-02-26T12:25:41.238Z,52.40
2019-02-26T12:28:21.730Z,51.60
2019-02-26T12:31:04.183Z,51.70
2019-02-26T12:33:45.816Z,52.00
2019-02-26T12:36:27.308Z,52.00
2019-02-26T12:39:12.459Z,50.90
2019-02-26T12:41:52.873Z,49.40
2019-02-26T12:44:42.249Z,48.90
2019-02-26T12:47:21.666Z,49.10
2019-02-26T12:50:05.212Z,47.60
2019-02-26T12:52:47.489Z,45.80
2019-02-26T12:55:31.683Z,45.20
2019-02-26T12:58:11.278Z,45.80
2019-02-26T13:00:53.252Z,45.80
2019-02-26T13:03:38.110Z,45.70
2019-02-26T13:06:18.685Z,45.50
2019-02-26T13:12:00.486Z,45.40
2019-02-26T13:14:28.912Z,45.50
2019-02-26T13:17:09.633Z,45.60
2019-02-26T13:19:58.154Z,46.30
2019-02-26T13:22:34.099Z,47.40
2019-02-26T13:25:17.871Z,47.70
2019-02-26T13:27:57.626Z,48.00
2019-02-26T13:30:38.443Z,48.20
2019-02-26T13:33:26.187Z,48.00
2019-02-26T13:36:04.795Z,48.60
2019-02-26T13:38:49.155Z,48.50
2019-02-26T13:41:30.433Z,48.70
2019-02-26T13:44:12.250Z,49.00
2019-02-26T13:49:37.517Z,48.90
2019-02-26T13:55:04.368Z,49.10
2019-02-26T13:57:45.616Z,48.80
2019-02-26T14:09:31.178Z,48.90
2019-02-26T14:15:11.687Z,50.00
2019-02-26T14:24:22.244Z,50.70
2019-02-26T14:32:16.309Z,51.10
2019-02-26T14:35:00.264Z,51.30
2019-02-26T14:40:26.996Z,51.80
2019-02-26T14:43:08.001Z,51.90
2019-02-26T14:48:39.799Z,52.10
2019-02-26T14:51:22.072Z,52.20
2019-02-26T14:56:51.306Z,52.50
2019-02-26T15:02:23.493Z,52.70
2019-02-26T15:05:04.353Z,52.80
2019-02-26T15:07:46.489Z,52.90
2019-02-26T15:10:28.385Z,52.90
2019-02-26T15:13:09.968Z,53.10
2019-02-26T15:15:51.476Z,53.40
2019-02-26T15:18:33.025Z,53.60
2019-02-26T15:27:12.160Z,54.10
2019-02-26T15:29:54.519Z,54.30
2019-02-26T15:32:41.417Z,55.20
2019-02-26T15:35:22.247Z,55.40
2019-02-26T15:38:03.710Z,55.50
2019-02-26T15:40:46.925Z,55.50
2019-02-26T15:43:27.891Z,55.40
2019-02-26T15:46:09.417Z,55.60
2019-02-26T15:48:51.043Z,55.70
2019-02-26T15:51:35.464Z,55.80
2019-02-26T15:54:20.091Z,55.90
2019-02-26T15:57:01.283Z,56.00
2019-02-26T15:59:42.894Z,56.00
2019-02-26T16:02:25.983Z,56.10
2019-02-26T16:05:10.710Z,56.20
2019-02-26T16:07:51.919Z,56.40
2019-02-26T16:10:33.170Z,56.60
2019-02-26T16:13:13.759Z,56.80
2019-02-26T16:15:58.539Z,56.90
2019-02-26T16:18:40.938Z,57.00
2019-02-26T16:21:22.439Z,57.10
2019-02-26T16:24:05.528Z,57.30
2019-02-26T16:26:47.059Z,57.40
2019-02-26T16:29:30.160Z,57.50
2019-02-26T16:35:03.036Z,57.60
2019-02-26T16:40:35.991Z,57.70
2019-02-26T16:43:17.879Z,57.70
2019-02-26T16:48:38.465Z,58.30
2019-02-26T16:54:49.213Z,58.60
2019-02-26T16:57:34.513Z,58.70
2019-02-26T17:00:16.447Z,58.70
2019-02-26T17:03:00.801Z,58.80
2019-02-26T17:08:26.874Z,59.10
2019-02-26T17:11:14.413Z,59.00
2019-02-26T17:13:57.551Z,58.90
2019-02-26T17:16:47.730Z,59.00
2019-02-26T17:19:34.035Z,58.90
2019-02-26T17:22:15.449Z,58.80
2019-02-26T17:24:56.374Z,59.00
2019-02-26T17:27:38.974Z,59.10
2019-02-26T17:30:20.866Z,59.30
2019-02-26T17:33:02.274Z,59.30
2019-02-26T17:35:43.696Z,59.50
2019-02-26T17:38:26.062Z,59.70
2019-02-26T17:41:07.191Z,59.80
2019-02-26T17:43:53.487Z,60.00
2019-02-26T17:49:20.691Z,60.30
2019-02-26T17:52:06.425Z,60.20
2019-02-26T17:54:49.739Z,59.90
2019-02-26T18:00:14.937Z,59.70
2019-02-26T18:02:56.024Z,59.80
2019-02-26T18:05:50.425Z,59.80
2019-02-26T18:08:20.550Z,59.70
2019-02-26T18:11:02.600Z,59.70
2019-02-26T18:13:43.940Z,59.80
2019-02-26T18:16:25.452Z,59.80
2019-02-26T18:19:06.904Z,59.90
2019-02-26T18:21:51.698Z,59.80
2019-02-26T18:24:32.215Z,60.30
2019-02-26T18:27:13.477Z,60.40
2019-02-26T18:29:54.840Z,60.50
2019-02-26T18:32:36.379Z,61.00
2019-02-26T18:35:18.033Z,61.20
2019-02-26T18:37:59.070Z,62.10
2019-02-26T18:40:40.047Z,61.20
2019-02-26T18:43:21.451Z,61.50
2019-02-26T18:48:49.275Z,61.70
2019-02-26T18:54:17.733Z,63.20
2019-02-26T18:57:01.294Z,63.30
2019-02-26T18:59:42.865Z,63.60
2019-02-26T19:02:24.185Z,64.70
2019-02-26T19:05:07.648Z,64.50
2019-02-26T19:07:49.021Z,64.80
2019-02-26T19:10:30.190Z,65.20
2019-02-26T19:13:12.797Z,65.60
2019-02-26T19:15:54.012Z,65.90
2019-02-26T19:18:46.841Z,66.00
2019-02-26T19:21:24.326Z,66.10
2019-02-26T19:24:05.235Z,66.40
2019-02-26T19:26:47.642Z,66.40
2019-02-26T19:29:53.541Z,66.50
2019-02-26T19:32:18.654Z,66.90
2019-02-26T19:35:12.066Z,66.90
2019-02-26T19:37:55.234Z,67.00
2019-02-26T19:43:30.542Z,67.00
2019-02-26T19:46:16.743Z,66.80
2019-02-26T19:49:00.659Z,67.50
2019-02-26T19:52:07.439Z,67.80
2019-02-26T19:54:41.967Z,68.40
2019-02-26T20:08:36.507Z,71.00
2019-02-26T20:11:18.000Z,71.40
2019-02-26T20:14:04.707Z,71.80
2019-02-26T20:16:44.232Z,72.00
2019-02-26T20:22:12.862Z,74.80
2019-02-26T20:24:54.146Z,77.00
2019-02-26T20:27:36.683Z,79.30
2019-02-26T20:30:17.994Z,81.30
2019-02-26T20:33:01.565Z,82.40
2019-02-26T20:35:45.398Z,83.10
2019-02-26T20:38:35.078Z,83.60
2019-02-26T20:41:21.847Z,84.30
2019-02-26T20:44:02.942Z,85.50
2019-02-26T20:46:44.842Z,86.50
2019-02-26T20:53:12.766Z,85.60
2019-02-26T20:55:19.339Z,85.50
2019-02-26T20:58:00.171Z,85.20
2019-02-26T21:00:44.586Z,86.30
2019-02-26T21:03:35.613Z,86.50
2019-02-26T21:06:18.599Z,88.40
2019-02-26T21:09:06.955Z,89.20
2019-02-26T21:11:48.298Z,90.00
2019-02-26T21:14:30.585Z,91.60
2019-02-26T21:17:12.445Z,91.30
2019-02-26T21:22:37.882Z,92.40
2019-02-26T21:28:03.379Z,94.70
2019-02-26T21:30:45.901Z,93.80
2019-02-26T21:33:30.620Z,94.20
2019-02-26T21:36:10.084Z,95.10
2019-02-26T21:38:51.182Z,95.20
2019-02-26T21:41:34.534Z,96.50
2019-02-26T21:44:15.577Z,96.40
2019-02-26T21:46:57.348Z,97.40
2019-02-26T21:49:40.933Z,97.60
2019-02-26T21:55:44.346Z,99.90
2019-02-26T21:58:26.851Z,99.90
2019-02-26T22:01:11.438Z,99.90
2019-02-26T22:06:36.157Z,99.90
2019-02-26T22:09:18.392Z,99.90
2019-02-26T22:12:00.226Z,99.90
2019-02-26T22:17:31.205Z,99.90
2019-02-26T22:23:02.063Z,99.90
2019-02-26T22:28:32.306Z,99.90
2019-02-26T22:34:02.905Z,99.90
2019-02-26T22:39:30.250Z,99.90
2019-02-26T22:42:11.578Z,99.90
2019-02-26T22:44:54.845Z,99.90
2019-02-26T22:50:29.125Z,99.90
2019-02-26T22:53:10.316Z,99.90
2019-02-26T22:55:52.265Z,99.90
2019-02-26T22:58:35.657Z,99.90
2019-02-26T23:01:19.099Z,99.90
2019-02-26T23:04:03.667Z,99.90
2019-02-26T23:06:45.138Z,99.90
2019-02-26T23:09:26.362Z,99.90
2019-02-26T23:12:07.436Z,99.90
2019-02-26T23:14:48.632Z,99.90
2019-02-26T23:17:29.568Z,99.90
2019-02-26T23:20:10.887Z,99.90
2019-02-26T23:22:52.533Z,99.90
2019-02-26T23:25:36.050Z,99.90
2019-02-26T23:28:16.771Z,99.90
2019-02-26T23:30:59.803Z,99.90
2019-02-26T23:33:41.059Z,99.90
2019-02-26T23:36:25.749Z,99.90
2019-02-26T23:39:07.367Z,99.90
2019-02-26T23:41:48.959Z,99.90
2019-02-26T23:44:32.994Z,99.90
2019-02-26T23:47:14.752Z,99.90
2019-02-26T23:49:55.988Z,99.90
2019-02-26T23:55:24.082Z,99.90
